Latest Coastal Weather Observations for Dunalley

IDT60701

Issued at 1:35 am EST Wednesday 17 September 2014 (issued every 10 minutes, with the page automatically refreshed every 10 minutes)

About coastal observations | Map of coastal stations | Coastal observations for TAS | Marine services | Other Formats
Station Details ID: 094254 Name: DUNALLEY (STROUD POINT) Lat: -42.90 Lon: 147.79 Height: 12.43 m
Data from the previous 72 hours. | See also: Recent months at Dunalley
Date/Time
EST
Temp

°C
Wind Pressure Rain
since 9am
mm
Weather Cloud Vis
km
Sea
Height
m
Swell
Dir
 
Speed
knots
Gust
knots
hPa Trend Height
m
Period
s
Dir
17/01:30am 7.9 ENE 2 3 1007.4 - - - - - - - - -
17/01:00am 8.1 ENE 2 3 1007.6 - - - - - - - - -
17/12:30am 7.4 ENE 4 5 1007.6 - - - - - - - - -
17/12:00am 7.8 ENE 3 4 1007.6 - - - - - - - - -
 
Date/Time
EST
Temp

°C
Wind Pressure Rain
since 9am
mm
Weather Cloud Vis
km
Sea
Height
m
Swell
Dir
 
Speed
knots
Gust
knots
hPa Trend Height
m
Period
s
Dir
16/11:30pm 7.2 ENE 4 5 1007.8 - - - - - - - - -
16/11:00pm 7.1 CALM 0 0 1008.1 - - - - - - - - -
16/10:30pm 8.5 ENE 2 3 1008.3 - - - - - - - - -
16/10:00pm 8.7 CALM 0 2 1008.4 - - - - - - - - -
16/09:30pm 10.0 ENE 7 10 1008.6 - - - - - - - - -
16/09:00pm 9.4 NE 8 9 1008.7 - - - - - - - - -
16/08:30pm 9.3 NE 8 9 1008.8 - - - - - - - - -
16/08:00pm 9.8 NE 9 10 1008.8 - - - - - - - - -
16/07:30pm 10.2 NE 9 10 1008.8 - - - - - - - - -
16/07:00pm 10.6 NE 9 11 1008.8 - - - - - - - - -
16/06:30pm 10.9 NE 8 10 1008.9 - - - - - - - - -
16/06:00pm 11.4 NE 11 13 1008.9 - - - - - - - - -
16/05:30pm 11.8 NE 12 14 1008.8 - - - - - - - - -
16/05:00pm 12.0 NE 13 16 1008.8 - - - - - - - - -
16/04:30pm 12.3 NE 14 17 1008.7 - - - - - - - - -
16/04:00pm 12.4 NE 15 19 1008.8 - - - - - - - - -
16/03:30pm 12.9 NE 14 17 1008.8 - - - - - - - - -
16/03:00pm 12.9 - - - 1008.9 - - - - - - - - -
16/02:30pm 13.2 NE 14 17 1009.1 - 0.0 - - - - - - -
16/02:00pm 13.5 NE 14 17 1009.3 - 0.0 - - - - - - -
16/01:30pm 13.1 NE 14 17 1009.4 - 0.0 - - - - - - -
16/01:00pm 13.1 NE 14 18 1009.7 - 0.0 - - - - - - -
16/12:30pm 13.3 ENE 11 15 1010.5 - 0.0 - - - - - - -
16/12:00pm 13.2 ENE 11 15 1011.1 - 0.0 - - - - - - -
16/11:30am 12.7 ENE 12 15 1011.4 - 0.0 - - - - - - -
16/11:00am 12.7 ENE 10 14 1011.8 - 0.0 - - - - - - -
16/10:30am 11.3 SSE 2 3 1012.5 - 0.0 - - - - - - -
16/10:00am 10.3 SSE 3 4 1012.8 - 0.0 - - - - - - -
16/09:30am 10.2 SSE 3 3 1013.1 - 0.0 - - - - - - -
16/09:00am 9.5 SSE 3 4 1013.3 - 0.0 - - - - - - -
16/08:30am 9.1 SSE 2 2 1013.6 - 0.0 - - - - - - -
16/08:00am 8.0 CALM 0 1 1013.7 - 0.0 - - - - - - -
16/07:30am 6.5 CALM 0 0 1013.6 - 0.0 - - - - - - -
16/07:00am 5.8 SSE 1 2 1013.7 - 0.0 - - - - - - -
16/06:30am 5.7 SSE 1 4 1013.6 - 0.0 - - - - - - -
16/06:00am 6.2 SSE 2 2 1013.4 - 0.0 - - - - - - -
16/05:30am 6.3 CALM 0 0 1013.4 - 0.0 - - - - - - -
16/05:00am 6.4 CALM 0 0 1013.5 - 0.0 - - - - - - -
16/04:30am 6.4 CALM 0 0 1013.5 - 0.0 - - - - - - -
16/04:00am 5.5 SSE 2 4 1013.4 - 0.0 - - - - - - -
16/03:30am 6.5 SSE 4 5 1013.4 - 0.0 - - - - - - -
16/03:00am 6.0 SSE 2 3 1013.6 - 0.0 - - - - - - -
16/02:30am 5.8 SSE 3 4 1014.0 - 0.0 - - - - - - -
16/02:00am 6.6 SSE 4 5 1014.3 - 0.0 - - - - - - -
16/01:30am 6.7 SSE 3 4 1014.8 - 0.0 - - - - - - -
16/01:00am 6.6 SSE 2 4 1015.2 - 0.0 - - - - - - -
16/12:30am 6.2 SSE 3 4 1015.4 - 0.0 - - - - - - -
16/12:00am 5.9 SSE 3 3 1015.6 - 0.0 - - - - - - -
 
Date/Time
EST
Temp

°C
Wind Pressure Rain
since 9am
mm
Weather Cloud Vis
km
Sea
Height
m
Swell
Dir
 
Speed
knots
Gust
knots
hPa Trend Height
m
Period
s
Dir
15/11:30pm 6.4 SSE 3 3 1015.9 - 0.0 - - - - - - -
15/11:00pm 6.4 SSE 3 3 1016.2 - 0.0 - - - - - - -
15/10:30pm 6.2 SSE 3 4 1016.4 - 0.0 - - - - - - -
15/10:00pm 6.6 SSE 4 4 1016.5 - 0.0 - - - - - - -
15/09:30pm 6.8 SSE 4 4 1016.6 - 0.0 - - - - - - -
15/09:00pm 8.2 SSE 2 3 1016.7 - 0.0 - - - - - - -
15/08:30pm 7.3 SSE 2 3 1016.9 - 0.0 - - - - - - -
15/08:00pm 7.7 SSE 3 3 1016.8 - 0.0 - - - - - - -
15/07:30pm 8.5 CALM 0 0 1016.9 - 0.0 - - - - - - -
15/07:00pm 8.5 SSE 2 4 1016.7 - 0.0 - - - - - - -
15/06:30pm 9.3 SSE 6 8 1016.6 - 0.0 - - - - - - -
15/06:00pm 9.7 SSE 7 9 1016.5 - 0.0 - - - - - - -
15/05:30pm 10.0 SSE 8 10 1016.3 - 0.0 - - - - - - -
15/05:00pm 10.3 S 7 9 1016.4 - 0.0 - - - - - - -
15/04:30pm 11.2 S 6 7 1016.3 - 0.0 - - - - - - -
15/04:00pm 11.8 S 5 6 1016.2 - 0.0 - - - - - - -
15/03:30pm 11.9 S 5 7 1016.3 - 0.0 - - - - - - -
15/03:00pm 12.2 S 6 8 1016.6 - 0.0 - - - - - - -
15/02:30pm 11.9 S 5 7 1016.7 - 0.0 - - - - - - -
15/02:00pm 12.1 SW 6 9 1017.1 - 0.0 - - - - - - -
15/01:30pm 12.2 SW 4 8 1017.3 - 0.0 - - - - - - -
15/01:00pm 11.3 WSW 6 8 1017.7 - 0.0 - - - - - - -
15/12:30pm 11.3 SW 9 11 1018.0 - 0.0 - - - - - - -
15/12:00pm 11.4 WSW 9 11 1018.2 - 0.0 - - - - - - -
15/11:30am 11.2 WSW 11 13 1018.4 - 0.0 - - - - - - -
15/11:00am 10.6 W 12 16 1018.5 - 0.0 - - - - - - -
15/10:30am 10.6 W 11 14 1018.6 - 0.0 - - - - - - -
15/10:00am 10.2 W 11 15 1018.7 - 0.0 - - - - - - -
15/09:30am 9.9 W 12 16 1018.6 - 0.0 - - - - - - -
15/09:00am 9.6 W 12 16 1018.5 - 0.0 - - - - - - -
15/08:30am 9.2 W 11 14 1018.4 - 0.0 - - - - - - -
15/08:00am 8.8 WNW 11 15 1018.4 - 0.0 - - - - - - -
15/07:30am 8.4 W 9 14 1018.3 - 0.0 - - - - - - -
15/07:00am 7.9 WNW 10 14 1018.1 - 0.0 - - - - - - -
15/06:30am 7.8 W 10 13 1018.1 - 0.0 - - - - - - -
15/06:00am 7.8 WNW 11 14 1018.0 - 0.0 - - - - - - -
15/05:30am 7.9 WNW 10 13 1017.8 - 0.0 - - - - - - -
15/05:00am 8.8 W 18 21 1017.7 - 0.0 - - - - - - -
15/04:30am 8.9 WSW 17 20 1017.7 - 0.0 - - - - - - -
15/04:00am 8.9 WSW 18 22 1017.6 - 0.0 - - - - - - -
15/03:30am 9.0 W 19 21 1017.6 - 0.0 - - - - - - -
15/03:00am 8.8 W 15 19 1017.9 - 0.0 - - - - - - -
15/02:30am 8.5 W 15 17 1018.0 - 0.0 - - - - - - -
15/02:00am 8.8 W 15 19 1018.0 - 0.0 - - - - - - -
15/01:30am 9.1 W 19 22 1018.3 - 0.0 - - - - - - -
15/01:00am 9.2 W 18 22 1018.5 - 0.0 - - - - - - -
15/12:30am 9.2 W 18 21 1018.4 - 0.0 - - - - - - -
15/12:00am 9.3 W 19 23 1018.2 - 0.0 - - - - - - -
 
Date/Time
EST
Temp

°C
Wind Pressure Rain
since 9am
mm
Weather Cloud Vis
km
Sea
Height
m
Swell
Dir
 
Speed
knots
Gust
knots
hPa Trend Height
m
Period
s
Dir
14/11:30pm 9.1 W 19 22 1018.3 - 0.0 - - - - - - -
14/11:00pm 9.2 W 18 21 1018.1 - 0.0 - - - - - - -
14/10:30pm 9.1 W 18 21 1018.3 - 0.0 - - - - - - -
14/10:00pm 9.0 W 16 21 1018.4 - 0.0 - - - - - - -
14/09:30pm 9.6 WSW 18 22 1018.3 - 0.0 - - - - - - -
14/09:00pm 9.7 W 18 22 1018.2 - 0.0 - - - - - - -
14/08:30pm 9.8 WSW 19 22 1018.1 - 0.0 - - - - - - -
14/08:00pm 9.9 WSW 16 19 1017.9 - 0.0 - - - - - - -
14/07:30pm 10.1 SW 16 19 1017.7 - 0.0 - - - - - - -
14/07:00pm 10.3 SW 18 22 1017.3 - 0.0 - - - - - - -
14/06:30pm 10.4 SW 19 22 1017.0 - 0.0 - - - - - - -
14/06:00pm 10.6 SW 17 20 1016.8 - 0.0 - - - - - - -
14/05:30pm 10.8 SW 17 22 1016.4 - 0.0 - - - - - - -
14/05:00pm 11.6 SW 23 27 1015.7 - 0.0 - - - - - - -
14/04:30pm 12.0 SW 20 24 1015.6 - 0.0 - - - - - - -
14/04:00pm 11.9 SW 20 26 1015.5 - 0.0 - - - - - - -
14/03:30pm 12.0 SW 20 24 1015.4 - 0.0 - - - - - - -
14/03:00pm 12.4 SW 19 24 1015.1 - 0.0 - - - - - - -
14/02:30pm 13.1 WSW 21 26 1015.0 - 0.0 - - - - - - -
14/02:00pm 12.9 SW 19 23 1015.1 - 0.0 - - - - - - -
14/01:30pm 13.5 SW 22 25 1014.7 - 0.0 - - - - - - -
14/01:00pm 12.3 SW 20 23 1014.7 - 0.0 - - - - - - -
14/12:30pm 13.5 SW 19 22 1014.5 - 0.0 - - - - - - -
14/12:00pm 13.2 WSW 17 21 1014.9 - 0.0 - - - - - - -
14/11:30am 13.1 WSW 19 22 1014.8 - 0.0 - - - - - - -
14/11:00am 12.8 WSW 18 22 1014.8 - 0.0 - - - - - - -
14/10:30am 12.6 WSW 17 21 1014.9 - 0.0 - - - - - - -
14/10:00am 12.3 WSW 24 30 1014.8 - 0.0 - - - - - - -
14/09:30am 11.9 WSW 24 31 1015.0 - 0.0 - - - - - - -
14/09:00am 11.5 W 21 25 1015.0 - 1.0 - - - - - - -
14/08:30am 11.2 W 23 27 1014.6 - 1.0 - - - - - - -
14/08:00am 11.2 W 16 18 1014.5 - 1.0 - - - - - - -
14/07:30am 10.5 SW 17 21 1013.8 - 1.0 - - - - - - -
14/07:00am 9.9 SW 18 21 1013.6 - 1.0 - - - - - - -
14/06:34am 11.1 SW 20 23 1013.2 - 0.2 - - - - - - -
14/06:30am 11.1 W 16 20 1012.9 - 0.2 - - - - - - -
14/06:00am 11.0 W 14 21 1012.3 - 0.2 Recent precip. - - - - - -
14/05:30am 10.4 W 11 16 1012.0 - 0.2 - - - - - - -
14/05:00am 11.4 WNW 12 21 1011.8 - 0.0 - - - - - - -
14/04:30am 11.4 NNW 7 11 1011.6 - 0.0 - - - - - - -
14/04:00am 11.4 NW 10 15 1011.6 - 0.0 - - - - - - -
14/03:30am 10.5 N 6 9 1012.1 - 0.0 - - - - - - -
14/03:00am 10.1 N 7 11 1012.6 - 0.0 - - - - - - -
14/02:30am 10.6 NNW 9 11 1013.5 - 0.0 - - - - - - -
14/02:00am 11.1 NW 11 16 1014.1 - 0.0 - - - - - - -

Other Formats:

Comma delimited format used in spreadsheet applications
http://www.bom.gov.au/fwo/IDT60701/IDT60701.94951.axf

JavaScript Object Notation format (JSON) in row-major order
http://www.bom.gov.au/fwo/IDT60701/IDT60701.94951.json